EZY86PW EGAA-EGNM
Flight info
| Callsign | EZY86PW |
|---|---|
| Flight time | N/A |
| Altitude | 25000 |
| Route | LISBO L603 PEPOD Q38 GIGTO UQ4 WAL DCT POL |
| Aircraft | A320/M-SDE2E3FGHIRWXY/LB1 |
Departure
| Time | N/A |
|---|---|
| Airport | Belfast International Airport (EGAA) |
Arrival
| Time | 2026-05-04 10:12 |
|---|---|
| Airport | Leeds Bradford Airport (EGNM) |
| Time | Latitude | Longitude | Altitude | Speed | Heading |
|---|---|---|---|---|---|
| 2026-05-04 10:08 | 53.74834 | -1.61140 | 3069 ft | 237 kts | 89° |
| 2026-05-04 10:08 | 53.74852 | -1.58390 | 2931 ft | 230 kts | 90° |
| 2026-05-04 10:08 | 53.75128 | -1.55830 | 2788 ft | 216 kts | 59° |
| 2026-05-04 10:08 | 53.76077 | -1.54088 | 2668 ft | 191 kts | 26° |
| 2026-05-04 10:09 | 53.77272 | -1.53495 | 2548 ft | 172 kts | 356° |
| 2026-05-04 10:09 | 53.78397 | -1.53851 | 2462 ft | 159 kts | 332° |
| 2026-05-04 10:09 | 53.79270 | -1.54839 | 2420 ft | 146 kts | 314° |
| 2026-05-04 10:09 | 53.80022 | -1.55990 | 2254 ft | 146 kts | 314° |
| 2026-05-04 10:10 | 53.80774 | -1.57138 | 2081 ft | 143 kts | 314° |
| 2026-05-04 10:10 | 53.81495 | -1.58240 | 1896 ft | 137 kts | 314° |
| 2026-05-04 10:10 | 53.82199 | -1.59323 | 1724 ft | 136 kts | 314° |
| 2026-05-04 10:10 | 53.82898 | -1.60397 | 1526 ft | 136 kts | 314° |
| 2026-05-04 10:11 | 53.83595 | -1.61466 | 1340 ft | 135 kts | 313° |
| 2026-05-04 10:11 | 53.84279 | -1.62550 | 1117 ft | 134 kts | 314° |
| 2026-05-04 10:11 | 53.84982 | -1.63597 | 1010 ft | 135 kts | 315° |
| 2026-05-04 10:11 | 53.85674 | -1.64669 | 805 ft | 134 kts | 314° |
| 2026-05-04 10:12 | 53.86367 | -1.65729 | 677 ft | 128 kts | 313° |
| 2026-05-04 10:12 | 53.86880 | -1.66507 | 681 ft | 58 kts | 319° |
| 2026-05-04 10:12 | 53.86981 | -1.66659 | 678 ft | 1 kts | 320° |
| 2026-05-04 10:12 | 53.87013 | -1.66715 | 680 ft | 13 kts | 314° |
| 2026-05-04 10:13 | 53.87042 | -1.66750 | 681 ft | 5 kts | 91° |
| 2026-05-04 10:13 | 53.86978 | -1.66651 | 678 ft | 10 kts | 137° |
| 2026-05-04 10:13 | 53.86964 | -1.66578 | 679 ft | 7 kts | 70° |
| 2026-05-04 10:13 | 53.86991 | -1.66503 | 680 ft | 8 kts | 68° |
| 2026-05-04 10:14 | 53.86985 | -1.66411 | 682 ft | 9 kts | 116° |
| 2026-05-04 10:14 | 53.86964 | -1.66344 | 682 ft | 0 kts | 120° |
| 2026-05-04 10:16 | 53.86915 | -1.66242 | 681 ft | 1 kts | 135° |
| 2026-05-04 10:16 | 53.86908 | -1.66230 | 681 ft | 4 kts | 137° |
| 2026-05-04 10:16 | 53.86868 | -1.66167 | 682 ft | 8 kts | 138° |
| 2026-05-04 10:16 | 53.86824 | -1.66086 | 681 ft | 13 kts | 109° |
| 2026-05-04 10:17 | 53.86816 | -1.65976 | 678 ft | 3 kts | 86° |
| 2026-05-04 10:17 | 53.86816 | -1.65940 | 676 ft | 1 kts | 90° |
| 2026-05-04 10:19 | 53.86863 | -1.65908 | 673 ft | 0 kts | 3° |